Time;durP1;ratioP1;P1;durP2;ratioP2;P2;SDS_P1;SDS_P2;PMS_P1;PMS_P2;Temp;Humidity;BMP_temperature;BMP_pressure;BME280_temperature;BME280_humidity;BME280_pressure;Samples;Min_cycle;Max_cycle;Signal;HPM_P1;HPM_P2
2021/11/13 00:00:16;;;;;;;;;;;;;;;0.60;92.74;96811.22;30002;983;1881;-64
2021/11/13 00:00:47;;;;;;;;;;;;;;;0.59;92.82;96811.47;30002;983;1885;-63
2021/11/13 00:01:17;;;;;;;;;;;;;;;0.58;92.92;96810.66;30002;983;1881;-63
2021/11/13 00:01:49;;;;;;;;;;;;;;;0.58;93.13;96805.31;30002;983;1868;-63
2021/11/13 00:02:20;;;;;;;;;;;;;;;0.59;92.91;96812.28;30002;983;1876;-63
2021/11/13 00:02:51;;;;;;;;;;;;;;;0.59;93.24;96806.94;30002;983;1885;-63
2021/11/13 00:03:22;;;;;;;;;;;;;;;0.59;92.97;96801.59;30002;983;1881;-63
2021/11/13 00:03:54;;;;;;;;;;;;;;;0.59;93.09;96798.91;30002;983;1885;-63
2021/11/13 00:04:24;;;;;;;;;;;;;;;0.58;92.87;96813.31;30002;983;1881;-63
2021/11/13 00:04:55;;;;;;;;;;;;;;;0.55;92.81;96803.09;30002;983;1885;-62
2021/11/13 00:05:26;;;;;;;;;;;;;;;0.52;92.72;96800.06;30002;982;1881;-63
2021/11/13 00:05:57;;;;;;;;;;;;;;;0.50;92.62;96802.97;30002;982;1886;-62
2021/11/13 00:06:28;;;;;;;;;;;;;;;0.50;92.84;96802.97;30002;982;1864;-63
2021/11/13 00:06:58;;;;;;;;;;;;;;;0.50;92.85;96807.50;30002;982;1881;-64
2021/11/13 00:07:29;;;;;;;;;;;;;;;0.49;92.84;96806.69;30002;982;1881;-63
2021/11/13 00:08:00;;;;;;;;;;;;;;;0.49;92.61;96804.00;30002;983;1885;-64
2021/11/13 00:08:31;;;;;;;;;;;;;;;0.50;92.77;96807.50;30002;983;1881;-63
2021/11/13 00:09:03;;;;;;;;;;;;;;;0.50;93.01;96807.50;30002;983;1885;-62
2021/11/13 00:09:35;;;;;;;;;;;;;;;0.49;92.98;96805.88;30002;983;1881;-64
2021/11/13 00:10:07;;;;;;;;;;;;;;;0.49;93.14;96800.53;30002;983;1868;-64
2021/11/13 00:10:39;;;;;;;;;;;;;;;0.48;92.95;96797.06;30002;983;1877;-63
2021/11/13 00:11:11;;;;;;;;;;;;;;;0.50;93.25;96796.81;30002;983;1885;-62
2021/11/13 00:11:42;;;;;;;;;;;;;;;0.51;93.46;96790.44;30002;983;1863;-64
2021/11/13 00:12:13;;;;;;;;;;;;;;;0.53;93.31;96791.03;30002;983;1864;-62
2021/11/13 00:12:44;;;;;;;;;;;;;;;0.52;93.34;96792.87;30001;982;1881;-63
2021/11/13 00:13:16;;;;;;;;;;;;;;;0.55;93.40;96796.94;30001;982;1886;-62
2021/11/13 00:13:52;;;;;;;;;;;;;;;0.52;92.96;96790.22;30001;982;1881;-64
2021/11/13 00:14:23;;;;;;;;;;;;;;;0.53;93.21;96799.03;30001;982;1886;-63
2021/11/13 00:14:53;;;;;;;;;;;;;;;0.54;93.24;96798.00;30001;982;1881;-62
2021/11/13 00:15:25;;;;;;;;;;;;;;;0.54;93.24;96806.00;30001;983;1885;-63
2021/11/13 00:15:56;;;;;;;;;;;;;;;0.52;93.28;96806.22;30001;983;1881;-63
2021/11/13 00:16:27;;;;;;;;;;;;;;;0.52;93.36;96811.56;30001;983;1885;-65
2021/11/13 00:16:58;;;;;;;;;;;;;;;0.52;93.09;96813.41;30001;983;1881;-64
2021/11/13 00:17:29;;;;;;;;;;;;;;;0.50;93.30;96808.31;30001;983;1868;-63
2021/11/13 00:18:00;;;;;;;;;;;;;;;0.52;93.15;96811.56;30001;983;1877;-62
2021/11/13 00:18:35;;;;;;;;;;;;;;;0.53;93.40;96817.72;30001;983;1885;-62
2021/11/13 00:19:05;;;;;;;;;;;;;;;0.54;93.15;96809.47;30001;983;1881;-64
2021/11/13 00:19:36;;;;;;;;;;;;;;;0.56;93.55;96812.72;30001;983;1885;-63
2021/11/13 00:20:09;;;;;;;;;;;;;;;0.56;93.44;96818.06;30001;983;1881;-62
2021/11/13 00:20:40;;;;;;;;;;;;;;;0.56;93.26;96818.06;30001;982;1886;-64
2021/11/13 00:21:11;;;;;;;;;;;;;;;0.55;93.43;96815.63;30001;982;1881;-63
2021/11/13 00:21:42;;;;;;;;;;;;;;;0.55;93.57;96811.09;30001;982;1868;-62
2021/11/13 00:22:13;;;;;;;;;;;;;;;0.55;93.43;96816.44;30001;982;1877;-63
2021/11/13 00:22:45;;;;;;;;;;;;;;;0.56;93.51;96818.06;30001;982;1868;-63
2021/11/13 00:23:15;;;;;;;;;;;;;;;0.56;93.35;96812.72;30001;983;1876;-64
2021/11/13 00:23:46;;;;;;;;;;;;;;;0.55;93.54;96818.31;30001;983;1885;-63
2021/11/13 00:24:18;;;;;;;;;;;;;;;0.51;93.25;96817.13;30001;983;1881;-62
2021/11/13 00:24:49;;;;;;;;;;;;;;;0.47;92.89;96818.62;30001;983;1885;-62
2021/11/13 00:25:21;;;;;;;;;;;;;;;0.45;93.00;96816.19;30001;983;1881;-64
2021/11/13 00:25:52;;;;;;;;;;;;;;;0.43;92.84;96828.97;30001;985;1885;-63
2021/11/13 00:26:23;;;;;;;;;;;;;;;0.40;93.09;96817.91;30001;983;1881;-63
2021/11/13 00:26:54;;;;;;;;;;;;;;;0.40;92.96;96824.06;30001;983;1885;-64
2021/11/13 00:27:25;;;;;;;;;;;;;;;0.40;93.08;96829.41;30001;982;1864;-63
2021/11/13 00:27:56;;;;;;;;;;;;;;;0.40;93.14;96831.28;30001;982;1881;-64
2021/11/13 00:28:26;;;;;;;;;;;;;;;0.37;93.03;96831.72;30001;982;1881;-64
2021/11/13 00:28:57;;;;;;;;;;;;;;;0.31;92.74;96825.47;30001;982;1886;-63
2021/11/13 00:29:28;;;;;;;;;;;;;;;0.28;92.66;96833.94;30001;982;1864;-64
2021/11/13 00:29:59;;;;;;;;;;;;;;;0.28;92.94;96825.94;30001;982;1881;-63
2021/11/13 00:30:30;;;;;;;;;;;;;;;0.27;92.92;96825.13;30001;983;1881;-63
2021/11/13 00:31:01;;;;;;;;;;;;;;;0.27;92.95;96824.31;30001;983;1885;-64
2021/11/13 00:31:32;;;;;;;;;;;;;;;0.24;93.20;96827.44;30001;983;1881;-63
2021/11/13 00:32:03;;;;;;;;;;;;;;;0.24;93.07;96835.44;30001;983;1885;-63
2021/11/13 00:32:34;;;;;;;;;;;;;;;0.22;92.78;96826.84;30001;983;1881;-64
2021/11/13 00:33:06;;;;;;;;;;;;;;;0.22;93.08;96837.50;30001;983;1885;-63
2021/11/13 00:33:37;;;;;;;;;;;;;;;0.21;93.21;96838.56;30001;983;1881;-64
2021/11/13 00:34:08;;;;;;;;;;;;;;;0.20;93.11;96840.41;30001;983;1868;-63
2021/11/13 00:34:39;;;;;;;;;;;;;;;0.18;93.21;96834.50;30001;982;1877;-64
2021/11/13 00:35:10;;;;;;;;;;;;;;;0.17;93.18;96834.72;30001;982;1885;-64
2021/11/13 00:35:41;;;;;;;;;;;;;;;0.18;93.33;96839.81;30001;982;1881;-63
2021/11/13 00:36:12;;;;;;;;;;;;;;;0.20;93.57;96836.94;30002;982;1804;-63
2021/11/13 00:36:42;;;;;;;;;;;;;;;0.20;93.36;96828.94;30001;982;1882;-64
2021/11/13 00:37:14;;;;;;;;;;;;;;;0.22;93.46;96832.19;30001;982;1886;-62
2021/11/13 00:37:44;;;;;;;;;;;;;;;0.20;93.30;96826.25;30001;982;1864;-64
2021/11/13 00:38:15;;;;;;;;;;;;;;;0.20;93.40;96828.94;30001;983;1881;-63
2021/11/13 00:38:46;;;;;;;;;;;;;;;0.19;93.30;96832.63;30001;983;1881;-62
2021/11/13 00:39:17;;;;;;;;;;;;;;;0.18;93.53;96831.81;30001;971;1890;-64
2021/11/13 00:39:48;;;;;;;;;;;;;;;0.18;93.37;96825.66;30001;983;1877;-63
2021/11/13 00:40:20;;;;;;;;;;;;;;;0.19;93.44;96837.97;30001;983;1885;-63
2021/11/13 00:40:51;;;;;;;;;;;;;;;0.17;93.56;96840.06;30001;983;1881;-63
2021/11/13 00:41:22;;;;;;;;;;;;;;;0.15;93.37;96832.28;30001;983;1885;-56
2021/11/13 00:41:53;;;;;;;;;;;;;;;0.14;93.47;96841.31;30001;983;1881;-63
2021/11/13 00:42:24;;;;;;;;;;;;;;;0.13;93.24;96833.53;30001;982;1886;-63
2021/11/13 00:42:55;;;;;;;;;;;;;;;0.12;93.35;96842.59;30001;982;1882;-62
2021/11/13 00:43:27;;;;;;;;;;;;;;;0.11;93.67;96836.44;30001;982;1886;-63
2021/11/13 00:43:58;;;;;;;;;;;;;;;0.10;93.47;96834.00;30001;982;1882;-63
2021/11/13 00:44:30;;;;;;;;;;;;;;;0.11;93.49;96841.78;30001;982;1868;-64
2021/11/13 00:45:01;;;;;;;;;;;;;;;0.09;93.46;96840.38;30001;985;1877;-63
2021/11/13 00:45:31;;;;;;;;;;;;;;;0.10;93.53;96839.34;30001;983;1885;-63
2021/11/13 00:46:02;;;;;;;;;;;;;;;0.09;93.45;96837.69;30001;983;1870;-63
2021/11/13 00:46:33;;;;;;;;;;;;;;;0.08;93.55;96838.75;30001;983;1885;-64
2021/11/13 00:47:05;;;;;;;;;;;;;;;0.07;93.42;96839.78;30001;983;1881;-62
2021/11/13 00:47:36;;;;;;;;;;;;;;;0.07;93.30;96832.59;30001;983;1885;-62
2021/11/13 00:48:08;;;;;;;;;;;;;;;0.07;93.49;96831.78;30001;983;1881;-63
2021/11/13 00:48:40;;;;;;;;;;;;;;;0.07;93.48;96840.59;30001;983;1885;-63
2021/11/13 00:49:11;;;;;;;;;;;;;;;0.04;93.61;96829.56;30001;983;1881;-62
2021/11/13 00:49:42;;;;;;;;;;;;;;;0.06;93.59;96835.47;30001;982;1868;-56
2021/11/13 00:50:14;;;;;;;;;;;;;;;0.06;93.58;96833.62;30001;982;1877;-57
2021/11/13 00:50:45;;;;;;;;;;;;;;;0.06;93.66;96838.97;30001;982;1886;-62
2021/11/13 00:51:16;;;;;;;;;;;;;;;0.04;93.37;96830.37;30001;982;1882;-63
2021/11/13 00:51:47;;;;;;;;;;;;;;;0.04;93.71;96830.37;30001;982;1886;-62
2021/11/13 00:52:17;;;;;;;;;;;;;;;0.05;93.53;96828.53;30001;983;1881;-64
2021/11/13 00:52:48;;;;;;;;;;;;;;;0.06;93.67;96828.28;30001;983;1885;-64
2021/11/13 00:53:19;;;;;;;;;;;;;;;0.09;93.75;96829.69;30001;983;1881;-64
2021/11/13 00:53:50;;;;;;;;;;;;;;;0.10;93.58;96834.00;30001;983;1885;-64
2021/11/13 00:54:21;;;;;;;;;;;;;;;0.10;93.41;96828.66;30001;987;1881;-64
2021/11/13 00:54:52;;;;;;;;;;;;;;;0.08;93.51;96830.75;30001;983;1868;-62
2021/11/13 00:55:23;;;;;;;;;;;;;;;0.08;93.50;96836.06;30001;983;1877;-63
2021/11/13 00:55:54;;;;;;;;;;;;;;;0.08;93.68;96836.06;30001;983;1885;-64
2021/11/13 00:56:25;;;;;;;;;;;;;;;0.08;93.43;96836.06;30001;983;1881;-64
2021/11/13 00:56:56;;;;;;;;;;;;;;;0.09;93.67;96832.38;30001;983;1885;-63
2021/11/13 00:57:27;;;;;;;;;;;;;;;0.09;93.39;96830.50;30001;982;1881;-63
2021/11/13 00:57:59;;;;;;;;;;;;;;;0.11;93.69;96830.28;30001;982;1886;-62
2021/11/13 00:58:30;;;;;;;;;;;;;;;0.11;93.61;96835.63;30001;982;1881;-62
2021/11/13 00:59:01;;;;;;;;;;;;;;;0.12;93.44;96834.59;30001;982;1868;-62
2021/11/13 00:59:32;;;;;;;;;;;;;;;0.12;93.58;96832.72;30001;982;1877;-64
2021/11/13 01:00:05;;;;;;;;;;;;;;;0.13;93.91;96828.19;30001;983;1885;-63
2021/11/13 01:00:36;;;;;;;;;;;;;;;0.13;93.61;96838.87;30001;983;1881;-64
2021/11/13 01:01:07;;;;;;;;;;;;;;;0.14;93.86;96832.50;30001;983;1885;-63
2021/11/13 01:01:38;;;;;;;;;;;;;;;0.15;93.82;96836.78;30001;983;1881;-63
2021/11/13 01:02:09;;;;;;;;;;;;;;;0.14;93.88;96830.66;30001;983;1885;-62
2021/11/13 01:02:40;;;;;;;;;;;;;;;0.16;93.75;96833.09;30001;983;1881;-56
2021/11/13 01:03:11;;;;;;;;;;;;;;;0.16;93.65;96833.91;30001;983;1886;-63
2021/11/13 01:03:42;;;;;;;;;;;;;;;0.16;93.80;96833.91;30001;983;1881;-63
2021/11/13 01:04:12;;;;;;;;;;;;;;;0.18;93.53;96826.47;30001;983;1868;-63
2021/11/13 01:04:43;;;;;;;;;;;;;;;0.18;93.84;96825.66;30001;982;1877;-63
2021/11/13 01:05:15;;;;;;;;;;;;;;;0.20;93.88;96820.91;30001;982;1886;-63
2021/11/13 01:05:46;;;;;;;;;;;;;;;0.20;93.68;96820.91;30001;982;1882;-64
2021/11/13 01:06:18;;;;;;;;;;;;;;;0.21;93.87;96819.88;30001;982;1886;-62
2021/11/13 01:06:51;;;;;;;;;;;;;;;0.22;93.66;96816.16;30001;982;1864;-62
2021/11/13 01:07:22;;;;;;;;;;;;;;;0.22;93.78;96813.50;30001;983;1881;-63
2021/11/13 01:07:53;;;;;;;;;;;;;;;0.22;93.79;96818.84;30001;983;1881;-64
2021/11/13 01:08:24;;;;;;;;;;;;;;;0.23;93.87;96815.13;30001;983;1885;-63
2021/11/13 01:08:54;;;;;;;;;;;;;;;0.25;93.75;96815.72;30001;983;1881;-64
2021/11/13 01:09:25;;;;;;;;;;;;;;;0.28;93.86;96807.25;30001;983;1885;-64
2021/11/13 01:09:56;;;;;;;;;;;;;;;0.27;93.65;96809.09;30001;983;1881;-63
2021/11/13 01:10:27;;;;;;;;;;;;;;;0.28;93.76;96810.72;30001;983;1885;-63
2021/11/13 01:10:57;;;;;;;;;;;;;;;0.29;93.68;96798.19;30001;983;1881;-63
2021/11/13 01:11:28;;;;;;;;;;;;;;;0.31;93.82;96804.12;30001;983;1886;-63
2021/11/13 01:12:00;;;;;;;;;;;;;;;0.31;93.59;96804.12;30001;983;1864;-65
2021/11/13 01:12:31;;;;;;;;;;;;;;;0.32;93.31;96795.06;30001;982;1881;-64
2021/11/13 01:13:02;;;;;;;;;;;;;;;0.29;93.23;96801.69;30001;982;1881;-62
2021/11/13 01:13:33;;;;;;;;;;;;;;;0.27;93.34;96802.97;30001;982;1886;-63
2021/11/13 01:14:04;;;;;;;;;;;;;;;0.25;93.15;96805.03;30001;982;1882;-62
2021/11/13 01:14:40;;;;;;;;;;;;;;;0.26;93.46;96814.66;30001;982;1886;-62
2021/11/13 01:15:11;;;;;;;;;;;;;;;0.26;93.24;96820.00;30001;983;1881;-63
2021/11/13 01:15:42;;;;;;;;;;;;;;;0.27;93.21;96824.31;30001;968;1900;-65
2021/11/13 01:16:14;;;;;;;;;;;;;;;0.30;93.28;96826.53;30001;983;1881;-63
2021/11/13 01:16:45;;;;;;;;;;;;;;;0.37;93.46;96829.06;30001;983;1885;-64
2021/11/13 01:17:16;;;;;;;;;;;;;;;0.43;93.36;96830.81;30001;983;1863;-63
2021/11/13 01:17:47;;;;;;;;;;;;;;;0.40;93.00;96823.25;30001;983;1881;-63
2021/11/13 01:18:18;;;;;;;;;;;;;;;0.38;92.65;96830.69;30001;983;1881;-56
2021/11/13 01:18:49;;;;;;;;;;;;;;;0.34;92.74;96830.34;30001;983;1868;-56
2021/11/13 01:19:20;;;;;;;;;;;;;;;0.32;92.86;96835.09;30001;986;1877;-63
2021/11/13 01:19:51;;;;;;;;;;;;;;;0.29;92.84;96832.91;30001;982;1886;-63
2021/11/13 01:20:23;;;;;;;;;;;;;;;0.26;92.63;96828.00;30001;982;1881;-63
2021/11/13 01:20:54;;;;;;;;;;;;;;;0.23;92.88;96833.81;30001;982;1886;-63
2021/11/13 01:21:25;;;;;;;;;;;;;;;0.21;92.87;96833.22;30001;982;1864;-64
2021/11/13 01:21:56;;;;;;;;;;;;;;;0.20;93.08;96828.94;30001;982;1882;-63
2021/11/13 01:22:26;;;;;;;;;;;;;;;0.19;92.89;96827.28;30001;983;1881;-64
2021/11/13 01:22:58;;;;;;;;;;;;;;;0.19;93.22;96837.97;30001;983;1885;-63
2021/11/13 01:23:28;;;;;;;;;;;;;;;0.17;93.22;96830.19;30001;983;1881;-64
2021/11/13 01:23:59;;;;;;;;;;;;;;;0.17;93.44;96832.03;30001;983;1885;-62
2021/11/13 01:24:30;;;;;;;;;;;;;;;0.16;93.00;96828.56;30001;983;1881;-63
2021/11/13 01:25:01;;;;;;;;;;;;;;;0.16;93.21;96838.44;30001;983;1886;-63
2021/11/13 01:25:32;;;;;;;;;;;;;;;0.15;93.17;96839.47;30001;983;1881;-63
2021/11/13 01:26:04;;;;;;;;;;;;;;;0.14;93.45;96835.97;30001;983;1868;-62
2021/11/13 01:26:35;;;;;;;;;;;;;;;0.14;93.41;96840.50;30001;982;1877;-64
2021/11/13 01:27:07;;;;;;;;;;;;;;;0.13;93.56;96844.22;30001;982;1886;-63
2021/11/13 01:27:38;;;;;;;;;;;;;;;0.14;93.50;96844.00;30001;982;1881;-61
2021/11/13 01:28:09;;;;;;;;;;;;;;;0.16;93.74;96854.44;30001;982;1886;-63
2021/11/13 01:28:40;;;;;;;;;;;;;;;0.16;93.73;96855.25;30001;982;1881;-62
2021/11/13 01:29:11;;;;;;;;;;;;;;;0.17;93.91;96856.88;30001;982;1886;-64
2021/11/13 01:29:43;;;;;;;;;;;;;;;0.17;93.59;96862.22;30001;982;1864;-64
2021/11/13 01:30:14;;;;;;;;;;;;;;;0.19;93.53;96864.66;30001;983;1863;-63
2021/11/13 01:30:45;;;;;;;;;;;;;;;0.16;93.40;96859.78;30001;983;1881;-63
2021/11/13 01:31:16;;;;;;;;;;;;;;;0.14;93.37;96861.84;30001;983;1868;-63
2021/11/13 01:31:47;;;;;;;;;;;;;;;0.13;93.39;96858.38;30001;983;1877;-62
2021/11/13 01:32:20;;;;;;;;;;;;;;;0.13;93.66;96855.69;30001;983;1885;-62
2021/11/13 01:32:51;;;;;;;;;;;;;;;0.13;93.34;96857.56;30001;983;1881;-63
2021/11/13 01:33:22;;;;;;;;;;;;;;;0.14;93.68;96856.50;30001;983;1886;-64
2021/11/13 01:33:56;;;;;;;;;;;;;;;0.17;93.58;96864.88;30001;983;1881;-63
2021/11/13 01:34:27;;;;;;;;;;;;;;;0.23;93.79;96869.31;30001;982;1886;-63
2021/11/13 01:34:59;;;;;;;;;;;;;;;0.38;93.15;96863.53;30001;982;1864;-63
2021/11/13 01:35:30;;;;;;;;;;;;;;;0.47;92.66;96872.84;30001;982;1864;-64
2021/11/13 01:36:02;;;;;;;;;;;;;;;0.47;92.05;96870.16;30001;982;1882;-64
2021/11/13 01:36:33;;;;;;;;;;;;;;;0.45;91.81;96874.91;30001;982;1886;-64
2021/11/13 01:37:04;;;;;;;;;;;;;;;0.44;91.87;96873.28;30001;982;1882;-64
2021/11/13 01:37:36;;;;;;;;;;;;;;;0.45;91.77;96868.78;30001;983;1885;-63
2021/11/13 01:38:07;;;;;;;;;;;;;;;0.54;91.65;96868.22;30001;983;1881;-64
2021/11/13 01:38:38;;;;;;;;;;;;;;;0.61;91.06;96866.25;30001;983;1885;-66
2021/11/13 01:39:09;;;;;;;;;;;;;;;0.63;90.86;96872.19;30001;983;1881;-57
2021/11/13 01:39:40;;;;;;;;;;;;;;;0.65;90.47;96875.44;30001;983;1868;-64
2021/11/13 01:40:13;;;;;;;;;;;;;;;0.63;90.35;96864.19;30001;983;1877;-63
2021/11/13 01:40:44;;;;;;;;;;;;;;;0.70;90.03;96868.56;30001;983;1886;-68
2021/11/13 01:41:15;;;;;;;;;;;;;;;0.69;90.05;96869.63;30001;983;1881;-66
2021/11/13 01:41:48;;;;;;;;;;;;;;;0.68;90.11;96868.81;30001;982;1886;-63
2021/11/13 01:42:25;;;;;;;;;;;;;;;0.69;90.23;96870.44;30001;982;1864;-67
2021/11/13 01:42:56;;;;;;;;;;;;;;;0.63;89.94;96866.03;30001;982;1881;-62
2021/11/13 01:43:30;;;;;;;;;;;;;;;0.58;90.35;96874.72;30001;982;1882;-63
2021/11/13 01:44:04;;;;;;;;;;;;;;;0.63;90.15;96866.84;30001;982;1886;-73
2021/11/13 01:44:36;;;;;;;;;;;;;;;0.62;90.29;96867.06;30001;982;1882;-67
2021/11/13 01:45:08;;;;;;;;;;;;;;;0.60;90.37;96877.16;30001;983;1885;-65
2021/11/13 01:45:39;;;;;;;;;;;;;;;0.53;90.46;96871.94;30001;983;1810;-69
2021/11/13 01:46:10;;;;;;;;;;;;;;;0.52;90.81;96878.31;30001;983;1885;-70
2021/11/13 01:46:41;;;;;;;;;;;;;;;0.51;90.67;96878.53;30001;983;1881;-69
2021/11/13 01:47:12;;;;;;;;;;;;;;;0.53;91.15;96877.25;30001;983;1885;-71
2021/11/13 01:47:44;;;;;;;;;;;;;;;0.54;91.19;96878.91;30001;983;1863;-63
2021/11/13 01:48:14;;;;;;;;;;;;;;;0.49;91.02;96880.62;30001;983;1881;-66
2021/11/13 01:48:45;;;;;;;;;;;;;;;0.40;91.05;96877.47;30001;983;1881;-66
2021/11/13 01:49:16;;;;;;;;;;;;;;;0.41;91.41;96878.28;30001;982;1886;-68
2021/11/13 01:49:47;;;;;;;;;;;;;;;0.46;91.17;96879.22;30001;982;1864;-65
2021/11/13 01:50:21;;;;;;;;;;;;;;;0.43;91.12;96876.19;30001;982;1882;-67
2021/11/13 01:50:51;;;;;;;;;;;;;;;0.43;91.83;96877.00;30001;982;1882;-68
2021/11/13 01:51:24;;;;;;;;;;;;;;;0.46;91.71;96879.22;30001;982;1886;-69
2021/11/13 01:51:55;;;;;;;;;;;;;;;0.47;91.61;96872.84;30001;983;1881;-65
2021/11/13 01:52:26;;;;;;;;;;;;;;;0.43;91.47;96874.34;30001;983;1885;-64
2021/11/13 01:52:57;;;;;;;;;;;;;;;0.38;91.48;96879.53;30001;983;1881;-63
2021/11/13 01:53:28;;;;;;;;;;;;;;;0.34;91.89;96878.41;30001;983;1885;-64
2021/11/13 01:54:04;;;;;;;;;;;;;;;0.28;92.04;96879.31;30001;983;1881;-63
2021/11/13 01:54:37;;;;;;;;;;;;;;;0.23;92.40;96876.50;30001;983;1885;-65
2021/11/13 01:55:08;;;;;;;;;;;;;;;0.19;92.15;96870.81;30001;983;1863;-65
2021/11/13 01:55:40;;;;;;;;;;;;;;;0.21;92.51;96873.25;30001;983;1881;-66
2021/11/13 01:56:16;;;;;;;;;;;;;;;0.23;92.82;96871.16;30001;983;1850;-64
2021/11/13 01:56:51;;;;;;;;;;;;;;;0.19;92.92;96864.66;30001;982;1886;-63
2021/11/13 01:57:23;;;;;;;;;;;;;;;0.18;92.84;96869.19;30001;982;1881;-66
2021/11/13 01:57:56;;;;;;;;;;;;;;;0.17;92.88;96866.72;30001;982;1886;-58
2021/11/13 01:58:28;;;;;;;;;;;;;;;0.13;92.72;96865.56;30001;982;1864;-63
2021/11/13 01:59:01;;;;;;;;;;;;;;;0.10;93.12;96866.00;30001;972;1884;-65
2021/11/13 01:59:31;;;;;;;;;;;;;;;0.08;93.10;96862.75;30001;983;1881;-64
2021/11/13 02:00:03;;;;;;;;;;;;;;;0.05;92.96;96857.88;30001;983;1885;-64
2021/11/13 02:00:45;;;;;;;;;;;;;;;0.01;93.24;96865.50;30001;986;1873;-69
2021/11/13 02:01:16;;;;;;;;;;;;;;;0.02;93.44;96858.31;30001;983;1885;-65
2021/11/13 02:01:47;;;;;;;;;;;;;;;0.00;93.51;96867.34;30001;983;1881;-64
2021/11/13 02:02:18;;;;;;;;;;;;;;;-0.01;93.38;96855.09;30001;983;1885;-64
2021/11/13 02:02:49;;;;;;;;;;;;;;;-0.02;93.75;96858.81;30001;983;1881;-64
2021/11/13 02:03:22;;;;;;;;;;;;;;;-0.02;93.84;96864.12;30001;983;1885;-64
2021/11/13 02:03:53;;;;;;;;;;;;;;;-0.02;93.83;96861.47;30001;983;1881;-65
2021/11/13 02:04:23;;;;;;;;;;;;;;;-0.01;94.18;96854.28;30001;982;1868;-62
2021/11/13 02:04:54;;;;;;;;;;;;;;;-0.03;93.97;96851.84;30001;982;1877;-64
2021/11/13 02:05:25;;;;;;;;;;;;;;;-0.05;93.86;96858.44;30001;982;1886;-63
2021/11/13 02:05:56;;;;;;;;;;;;;;;-0.08;94.16;96857.03;30001;982;1882;-65
2021/11/13 02:06:27;;;;;;;;;;;;;;;-0.11;93.79;96848.66;30001;982;1886;-64
2021/11/13 02:06:58;;;;;;;;;;;;;;;-0.14;94.11;96855.25;30001;983;1881;-64
2021/11/13 02:07:29;;;;;;;;;;;;;;;-0.15;93.95;96858.97;30001;983;1868;-66
2021/11/13 02:08:00;;;;;;;;;;;;;;;-0.11;94.49;96857.47;30001;983;1876;-64
2021/11/13 02:08:31;;;;;;;;;;;;;;;-0.08;94.25;96856.22;30001;983;1885;-65
2021/11/13 02:09:03;;;;;;;;;;;;;;;-0.09;94.18;96850.06;30001;983;1881;-65
2021/11/13 02:09:33;;;;;;;;;;;;;;;-0.09;94.43;96847.41;30001;983;1885;-63
2021/11/13 02:10:06;;;;;;;;;;;;;;;-0.13;94.35;96851.56;30001;972;1902;-64
2021/11/13 02:10:36;;;;;;;;;;;;;;;-0.17;93.98;96844.22;30001;983;1885;-65
2021/11/13 02:11:07;;;;;;;;;;;;;;;-0.19;94.30;96849.78;30001;983;1881;-65
2021/11/13 02:11:38;;;;;;;;;;;;;;;-0.19;94.59;96847.13;30001;983;1886;-63
2021/11/13 02:12:09;;;;;;;;;;;;;;;-0.20;94.74;96842.00;30001;982;1881;-65
2021/11/13 02:12:41;;;;;;;;;;;;;;;-0.20;94.75;96842.81;30001;982;1868;-66
2021/11/13 02:13:12;;;;;;;;;;;;;;;-0.20;94.89;96844.69;30001;982;1877;-64
2021/11/13 02:13:42;;;;;;;;;;;;;;;-0.19;94.77;96844.47;30001;982;1886;-65
2021/11/13 02:14:13;;;;;;;;;;;;;;;-0.18;95.06;96848.75;30001;982;1882;-65
2021/11/13 02:14:44;;;;;;;;;;;;;;;-0.20;94.79;96840.16;30001;983;1885;-65
2021/11/13 02:15:15;;;;;;;;;;;;;;;-0.20;94.86;96840.16;30001;983;1881;-63
2021/11/13 02:15:46;;;;;;;;;;;;;;;-0.20;94.85;96845.50;30001;983;1885;-65
2021/11/13 02:16:17;;;;;;;;;;;;;;;-0.22;94.96;96844.91;30001;983;1881;-64
2021/11/13 02:16:48;;;;;;;;;;;;;;;-0.23;95.02;96845.94;30001;983;1885;-65
2021/11/13 02:17:19;;;;;;;;;;;;;;;-0.23;95.17;96851.28;30001;972;1903;-64
2021/11/13 02:17:50;;;;;;;;;;;;;;;-0.22;95.19;96844.09;30001;983;1868;-64
2021/11/13 02:18:21;;;;;;;;;;;;;;;-0.22;95.38;96847.56;30001;983;1877;-64
2021/11/13 02:18:52;;;;;;;;;;;;;;;-0.22;95.13;96854.75;30001;983;1886;-64
2021/11/13 02:19:23;;;;;;;;;;;;;;;-0.22;95.26;96847.56;30001;982;1881;-63
2021/11/13 02:19:54;;;;;;;;;;;;;;;-0.22;95.09;96850.25;30001;982;1886;-64
2021/11/13 02:20:26;;;;;;;;;;;;;;;-0.25;95.25;96850.69;30001;982;1801;-64
2021/11/13 02:20:57;;;;;;;;;;;;;;;-0.25;95.17;96849.88;30001;982;1886;-65
2021/11/13 02:21:28;;;;;;;;;;;;;;;-0.28;95.34;96837.81;30001;982;1882;-65
2021/11/13 02:22:00;;;;;;;;;;;;;;;-0.29;95.20;96835.34;30001;983;1885;-64
2021/11/13 02:22:31;;;;;;;;;;;;;;;-0.28;95.38;96837.81;30001;983;1881;-64
2021/11/13 02:23:07;;;;;;;;;;;;;;;-0.26;95.27;96834.91;30001;983;1868;-56
2021/11/13 02:23:39;;;;;;;;;;;;;;;-0.26;95.54;96835.72;30001;983;1877;-64
2021/11/13 02:24:10;;;;;;;;;;;;;;;-0.28;95.28;96835.12;30001;983;1885;-65
2021/11/13 02:24:45;;;;;;;;;;;;;;;-0.26;95.63;96842.91;30001;983;1881;-63
2021/11/13 02:25:20;;;;;;;;;;;;;;;-0.27;95.62;96842.09;30001;983;1886;-65
2021/11/13 02:25:52;;;;;;;;;;;;;;;-0.27;95.53;96839.44;30001;983;1881;-64
2021/11/13 02:26:25;;;;;;;;;;;;;;;-0.26;95.47;96835.72;30001;982;1886;-64
2021/11/13 02:26:56;;;;;;;;;;;;;;;-0.25;95.68;96837.34;30001;982;1881;-65
2021/11/13 02:27:30;;;;;;;;;;;;;;;-0.23;95.65;96840.59;30001;982;1886;-65
2021/11/13 02:28:02;;;;;;;;;;;;;;;-0.22;95.80;96850.25;30001;982;1882;-65
2021/11/13 02:28:36;;;;;;;;;;;;;;;-0.21;95.83;96848.38;30001;982;1868;-65
2021/11/13 02:29:07;;;;;;;;;;;;;;;-0.20;95.82;96858.81;30001;982;1877;-64
2021/11/13 02:29:38;;;;;;;;;;;;;;;-0.17;95.89;96866.38;30001;983;1885;-65
2021/11/13 02:30:10;;;;;;;;;;;;;;;-0.15;96.01;96858.16;30001;983;1881;-65
2021/11/13 02:30:42;;;;;;;;;;;;;;;-0.13;95.71;96854.22;30001;983;1885;-66
2021/11/13 02:31:13;;;;;;;;;;;;;;;-0.12;95.95;96857.72;30001;983;1863;-66
2021/11/13 02:31:44;;;;;;;;;;;;;;;-0.08;95.74;96854.38;30001;983;1881;-64
2021/11/13 02:32:15;;;;;;;;;;;;;;;-0.07;95.74;96861.31;30001;983;1881;-63
2021/11/13 02:32:46;;;;;;;;;;;;;;;-0.08;95.65;96857.03;30001;983;1885;-65
2021/11/13 02:33:18;;;;;;;;;;;;;;;-0.11;95.74;96854.81;30001;983;1881;-65
2021/11/13 02:33:49;;;;;;;;;;;;;;;-0.12;95.65;96852.38;30001;982;1885;-65
2021/11/13 02:34:19;;;;;;;;;;;;;;;-0.11;95.72;96859.34;30001;982;1881;-64
2021/11/13 02:34:50;;;;;;;;;;;;;;;-0.13;95.56;96851.56;30001;982;1886;-65
2021/11/13 02:35:22;;;;;;;;;;;;;;;-0.17;95.84;96850.38;30001;982;1882;-65
2021/11/13 02:35:53;;;;;;;;;;;;;;;-0.19;95.55;96852.47;30001;982;1886;-64
2021/11/13 02:36:26;;;;;;;;;;;;;;;-0.20;95.54;96860.69;30001;970;1884;-65
2021/11/13 02:36:57;;;;;;;;;;;;;;;-0.20;95.54;96855.34;30001;982;1882;-65
2021/11/13 02:37:28;;;;;;;;;;;;;;;-0.19;95.77;96868.47;30001;983;1881;-66
2021/11/13 02:38:13;;;;;;;;;;;;;;;-0.20;95.77;96858.81;30001;983;1885;-65
2021/11/13 02:38:44;;;;;;;;;;;;;;;-0.19;95.77;96862.31;30001;983;1881;-65
2021/11/13 02:39:15;;;;;;;;;;;;;;;-0.18;95.69;96861.28;30001;983;1885;-63
2021/11/13 02:39:46;;;;;;;;;;;;;;;-0.19;95.84;96857.78;30001;983;1881;-64
2021/11/13 02:40:17;;;;;;;;;;;;;;;-0.20;95.64;96861.50;30001;983;1885;-63
2021/11/13 02:40:49;;;;;;;;;;;;;;;-0.21;95.87;96854.53;30001;983;1881;-65
2021/11/13 02:41:22;;;;;;;;;;;;;;;-0.20;95.89;96856.16;30001;982;1868;-64
2021/11/13 02:41:54;;;;;;;;;;;;;;;-0.20;96.01;96856.16;30001;982;1877;-65
2021/11/13 02:42:25;;;;;;;;;;;;;;;-0.19;95.77;96863.13;30001;982;1886;-63
2021/11/13 02:43:00;;;;;;;;;;;;;;;-0.19;96.00;96867.63;30001;982;1881;-65
2021/11/13 02:43:32;;;;;;;;;;;;;;;-0.18;95.80;96863.94;30001;982;1886;-63
2021/11/13 02:44:05;;;;;;;;;;;;;;;-0.19;96.04;96860.47;30001;982;1882;-64
2021/11/13 02:44:36;;;;;;;;;;;;;;;-0.20;96.08;96853.50;30001;983;1885;-66
2021/11/13 02:45:10;;;;;;;;;;;;;;;-0.19;96.03;96868.47;30001;983;1881;-64
2021/11/13 02:45:42;;;;;;;;;;;;;;;-0.18;96.03;96863.94;30001;983;1885;-63
2021/11/13 02:46:13;;;;;;;;;;;;;;;-0.18;96.20;96867.41;30001;983;1881;-65
2021/11/13 02:46:44;;;;;;;;;;;;;;;-0.18;95.96;96864.75;30001;983;1868;-66
2021/11/13 02:47:17;;;;;;;;;;;;;;;-0.21;96.18;96859.88;30001;983;1877;-66
2021/11/13 02:47:50;;;;;;;;;;;;;;;-0.21;96.12;96867.06;30001;983;1868;-66
2021/11/13 02:48:23;;;;;;;;;;;;;;;-0.21;96.10;96861.72;30001;983;1859;-64
2021/11/13 02:48:54;;;;;;;;;;;;;;;-0.21;96.31;96857.19;30001;982;1886;-64
2021/11/13 02:49:25;;;;;;;;;;;;;;;-0.20;96.28;96863.34;30001;982;1881;-64
2021/11/13 02:49:56;;;;;;;;;;;;;;;-0.17;96.09;96855.72;30001;982;1886;-66